Terminal Aerodrome Forecast
Issued by NWS

Home | Current Version | Previous Version | Text Only | Print | Product List | Glossary On
Versions: 1 2 3 4 5 6 7 8 9 10 11 12 13 14 15 16
895
FTUS45 KPIH 271830 AAA
TAFSUN
TAF AMD
KSUN 271830Z 2719/2818 14006KT P6SM VCTS BKN015CB BKN050
      TEMPO 2719/2721 SCT015CB BKN050
     FM272100 31008KT P6SM VCSH SCT080
     FM280500 32015KT P6SM SKC=

USA.gov is the U.S. government's official web portal to all federal, state and local government web resources and services.